Latest Coastal Weather Observations for Moorabbin Airport

IDV60701

Issued at 2:11 am EST Thursday 28 May 2015 (issued every 10 minutes, with the page automatically refreshed every 10 minutes)

About coastal observations | Map of coastal stations | Coastal observations for VIC | Marine services | Other Formats
Station Details ID: 086077 Name: MOORABBIN AIRPORT Lat: -37.98 Lon: 145.10 Height: 12.1 m
Data from the previous 72 hours. | See also: Recent months at Moorabbin Airport
Date/Time
EST
Temp

°C
Wind Pressure Rain
since 9am
mm
Weather Cloud Vis
km
Sea
Height
m
Swell
Dir
 
Speed
knots
Gust
knots
hPa Trend Height
m
Period
s
Dir
28/02:00am 12.9 N 11 14 1017.7 - 0.0 - - 10 - - - -
28/01:30am 13.0 N 13 17 1017.8 - 0.0 - - 10 - - - -
28/01:00am 12.8 N 11 15 1017.8 - 0.0 - - 10 - - - -
28/12:30am 13.0 N 12 16 1018.0 - 0.0 - Partly cloudy 10 - - - -
28/12:00am 13.4 N 13 17 1018.2 - 0.0 - Partly cloudy 10 - - - -
 
Date/Time
EST
Temp

°C
Wind Pressure Rain
since 9am
mm
Weather Cloud Vis
km
Sea
Height
m
Swell
Dir
 
Speed
knots
Gust
knots
hPa Trend Height
m
Period
s
Dir
27/11:30pm 13.5 NNW 11 14 1018.3 - 0.0 - Partly cloudy 10 - - - -
27/11:00pm 13.5 N 11 14 1018.3 - 0.0 - Partly cloudy 10 - - - -
27/10:30pm 13.8 N 12 17 1018.3 - 0.0 - Partly cloudy 10 - - - -
27/10:00pm 13.8 N 12 15 1018.2 - 0.0 - - 10 - - - -
27/09:30pm 14.0 N 14 18 1018.1 - 0.0 - - 10 - - - -
27/09:00pm 13.6 N 11 14 1018.4 - 0.0 - - 10 - - - -
27/08:30pm 14.2 N 12 16 1018.5 - 0.0 - - 10 - - - -
27/08:00pm 13.8 N 9 13 1018.5 - 0.0 - - 10 - - - -
27/07:30pm 14.4 N 12 15 1018.5 - 0.0 - - 10 - - - -
27/07:00pm 14.8 N 12 17 1018.5 - 0.0 - - 10 - - - -
27/06:30pm 15.1 N 14 19 1018.2 - 0.0 - - 10 - - - -
27/06:00pm 15.6 N 15 22 1017.9 - 0.0 - - 10 - - - -
27/05:30pm 15.9 N 13 17 1017.9 - 0.0 - - 10 - - - -
27/05:00pm 16.3 NNW 13 17 1017.7 - 0.0 - - 10 - - - -
27/04:30pm 17.1 NNW 15 20 1017.4 - 0.0 - - 10 - - - -
27/04:00pm 17.5 NNW 15 22 1017.3 - 0.0 - - 10 - - - -
27/03:30pm 17.8 N 15 21 1017.4 - 0.0 - - 10 - - - -
27/03:08pm 17.8 NNW 15 25 1017.3 - 0.0 - - 10 - - - -
27/03:00pm 18.2 NNW 15 19 1017.4 - 0.0 - - 10 - - - -
27/02:30pm 18.3 NNW 16 23 1017.3 - 0.0 - - 10 - - - -
27/02:00pm 17.8 N 16 20 1017.4 - 0.0 - - 10 - - - -
27/01:30pm 17.0 N 15 19 1018.0 - 0.0 - - 10 - - - -
27/01:00pm 16.8 N 15 19 1018.4 - 0.0 - Partly cloudy 10 - - - -
27/12:30pm 16.1 N 14 19 1018.6 - 0.0 - Partly cloudy 10 - - - -
27/12:03pm 16.2 N 15 25 1019.2 - 0.0 - Partly cloudy 10 - - - -
27/12:00pm 16.9 N 17 25 1019.3 - 0.0 - Cloudy 10 - - - -
27/11:30am 16.2 N 13 17 1019.7 - 0.0 - Partly cloudy 10 - - - -
27/11:00am 15.5 N 11 15 1020.3 - 0.0 - Cloudy 10 - - - -
27/10:30am 15.6 N 15 19 1020.5 - 0.0 - Partly cloudy 10 - - - -
27/10:00am 15.2 N 15 21 1020.6 - 0.0 - Cloudy 10 - - - -
27/09:30am 14.3 N 13 17 1020.4 - 0.0 - Cloudy 10 - - - -
27/09:00am 14.0 N 15 19 1020.3 - 0.2 - Cloudy 10 - - - -
27/08:30am 13.5 N 14 19 1020.2 - 0.2 - Partly cloudy 10 - - - -
27/08:00am 13.1 N 13 16 1020.2 - 0.2 - Partly cloudy 10 - - - -
27/07:30am 12.6 N 11 14 1020.4 - 0.2 - Partly cloudy 10 - - - -
27/07:00am 12.5 N 10 13 1020.2 - 0.2 - Partly cloudy 10 - - - -
27/06:30am 12.5 NNE 11 15 1020.2 - 0.2 - Partly cloudy 10 - - - -
27/06:00am 12.2 N 10 13 1020.3 - 0.2 Recent precip. Cloudy 10 - - - -
27/05:30am 12.7 N 11 13 1020.6 - 0.0 - Partly cloudy 10 - - - -
27/05:00am 12.6 N 10 12 1020.6 - 0.0 - Partly cloudy 10 - - - -
27/04:30am 12.8 N 11 15 1020.6 - 0.0 - Cloudy 10 - - - -
27/04:00am 12.0 N 9 10 1020.8 - 0.0 - Partly cloudy 10 - - - -
27/03:30am 11.1 N 7 8 1021.0 - 0.0 - Partly cloudy 10 - - - -
27/03:00am 11.4 N 7 9 1021.3 - 0.0 - Cloudy 10 - - - -
27/02:30am 12.0 N 9 11 1021.7 - 0.0 - Partly cloudy 10 - - - -
27/02:00am 11.9 N 10 12 1021.8 - 0.0 - Partly cloudy 10 - - - -
27/01:30am 11.9 N 9 11 1021.9 - 0.0 - - 10 - - - -
27/01:00am 11.7 N 7 9 1022.2 - 0.0 - - 10 - - - -
27/12:30am 12.0 NNE 11 14 1022.5 - 0.0 - - 10 - - - -
27/12:00am 10.7 NNE 7 8 1023.0 - 0.0 - Partly cloudy 10 - - - -
 
Date/Time
EST
Temp

°C
Wind Pressure Rain
since 9am
mm
Weather Cloud Vis
km
Sea
Height
m
Swell
Dir
 
Speed
knots
Gust
knots
hPa Trend Height
m
Period
s
Dir
26/11:30pm 10.7 N 6 7 1023.5 - 0.0 - - 10 - - - -
26/11:00pm 11.5 N 6 7 1023.6 - 0.0 - - 10 - - - -
26/10:30pm 11.1 N 7 8 1023.6 - 0.0 - - 10 - - - -
26/10:00pm 11.8 N 6 7 1023.9 - 0.0 - - 10 - - - -
26/09:30pm 11.5 N 5 6 1023.9 - 0.0 - - 10 - - - -
26/09:00pm 11.5 N 4 5 1023.9 - 0.0 - Partly cloudy 10 - - - -
26/08:30pm 10.9 N 6 7 1023.9 - 0.0 - - 10 - - - -
26/08:00pm 12.1 N 8 9 1024.3 - 0.0 - Partly cloudy 10 - - - -
26/07:30pm 12.8 N 5 6 1024.5 - 0.0 - Partly cloudy 10 - - - -
26/07:00pm 13.0 N 7 8 1024.8 - 0.0 - Partly cloudy 10 - - - -
26/06:30pm 13.0 N 6 7 1024.8 - 0.0 - - 10 - - - -
26/06:00pm 13.3 NNE 5 6 1024.7 - 0.0 - Cloudy 10 - - - -
26/05:30pm 13.8 NNE 5 6 1024.5 - 0.0 - - 10 - - - -
26/05:00pm 14.4 NNE 7 9 1024.6 - 0.0 - Partly cloudy 10 - - - -
26/04:30pm 14.5 N 8 10 1024.9 - 0.0 - Cloudy 10 - - - -
26/04:00pm 14.7 N 6 8 1025.2 - 0.0 - Cloudy 10 - - - -
26/03:30pm 15.1 N 5 7 1025.2 - 0.0 - Cloudy 10 - - - -
26/03:00pm 15.3 N 7 8 1025.3 - 0.0 - Mostly cloudy 10 - - - -
26/02:30pm 15.1 N 7 8 1025.5 - 0.0 - Partly cloudy 10 - - - -
26/02:00pm 15.6 N 7 9 1026.0 - 0.0 - Partly cloudy 10 - - - -
26/01:30pm 15.4 NNE 6 8 1026.3 - 0.0 - - 10 - - - -
26/01:00pm 15.5 NNW 5 6 1026.6 - 0.0 - - 10 - - - -
26/12:30pm 15.5 N 7 9 1027.1 - 0.0 - Partly cloudy 10 - - - -
26/12:00pm 15.8 N 5 7 1027.4 - 0.0 - - 10 - - - -
26/11:30am 14.7 N 4 6 1028.1 - 0.0 - - 10 - - - -
26/11:00am 13.9 N 5 6 1029.0 - 0.0 - - 10 - - - -
26/10:30am 13.4 N 4 6 1029.4 - 0.0 - - 10 - - - -
26/10:00am 12.7 N 4 5 1029.5 - 0.0 - - 10 - - - -
26/09:30am 10.6 N 3 5 1029.5 - 0.0 - - 10 - - - -
26/09:00am 8.9 CALM 0 3 1029.7 - 0.0 - - 10 - - - -
26/08:30am 6.3 CALM 0 0 1029.7 - 0.0 - - 10 - - - -
26/08:00am 4.9 CALM 0 0 1029.6 - 0.0 - - 10 - - - -
26/07:30am 3.6 CALM 0 0 1029.4 - 0.0 - - 10 - - - -
26/07:00am 4.4 NNW 3 5 1029.3 - 0.0 - - 10 - - - -
26/06:30am 4.1 CALM 0 0 1029.2 - 0.0 - - 10 - - - -
26/06:00am 4.3 CALM 0 0 1029.1 - 0.0 - - 10 - - - -
26/05:30am 6.1 NNW 3 4 1029.1 - 0.0 - - 10 - - - -
26/05:00am 6.5 NNW 4 5 1029.0 - 0.0 - - 10 - - - -
26/04:30am 7.0 N 4 5 1029.2 - 0.0 - - 10 - - - -
26/04:00am 6.6 NNW 5 6 1029.1 - 0.0 - - 10 - - - -
26/03:30am 6.8 NNW 4 5 1029.1 - 0.0 - - 10 - - - -
26/03:00am 6.4 NNW 4 4 1029.4 - 0.0 - - 10 - - - -
26/02:30am 6.8 N 3 4 1029.5 - 0.0 - - 10 - - - -
26/02:00am 7.5 N 4 4 1029.5 - 0.0 - - 10 - - - -
26/01:30am 7.7 N 5 6 1029.4 - 0.0 - - 10 - - - -
26/01:00am 7.7 N 5 6 1029.6 - 0.0 - - 10 - - - -
26/12:30am 7.8 N 5 6 1029.7 - 0.0 - - 10 - - - -
26/12:00am 8.4 N 5 6 1029.8 - 0.0 - - 10 - - - -
 
Date/Time
EST
Temp

°C
Wind Pressure Rain
since 9am
mm
Weather Cloud Vis
km
Sea
Height
m
Swell
Dir
 
Speed
knots
Gust
knots
hPa Trend Height
m
Period
s
Dir
25/11:30pm 7.8 N 5 6 1029.8 - 0.0 - - 10 - - - -
25/11:00pm 8.2 N 5 6 1029.9 - 0.0 - - 10 - - - -
25/10:30pm 8.3 NNE 5 6 1030.1 - 0.0 - - 10 - - - -
25/10:00pm 8.9 N 5 6 1030.3 - 0.0 - - 10 - - - -
25/09:30pm 9.1 N 7 9 1030.3 - 0.0 - - 10 - - - -
25/09:00pm 9.6 N 8 9 1030.3 - 0.0 - - 10 - - - -
25/08:30pm 9.7 N 7 8 1030.3 - 0.0 - - 10 - - - -
25/08:00pm 9.7 NNE 6 7 1030.2 - 0.0 - - 10 - - - -
25/07:30pm 10.1 N 5 6 1030.1 - 0.0 - - 10 - - - -
25/07:00pm 10.9 NNE 5 5 1029.8 - 0.0 - - 10 - - - -
25/06:30pm 11.4 NNE 6 6 1029.6 - 0.0 - - 10 - - - -
25/06:00pm 11.2 NE 6 7 1029.2 - 0.0 - - 10 - - - -
25/05:30pm 12.8 NNE 5 6 1029.0 - 0.0 - - 10 - - - -
25/05:00pm 13.7 NNE 4 5 1028.7 - 0.0 - - 10 - - - -
25/04:30pm 13.9 NNE 5 6 1028.7 - 0.0 - - 10 - - - -
25/04:00pm 15.3 N 5 6 1028.8 - 0.0 - - 10 - - - -
25/03:30pm 16.3 N 6 9 1028.8 - 0.0 - - 10 - - - -
25/03:00pm 16.5 N 7 10 1028.8 - 0.0 - - 10 - - - -
25/02:30pm 16.4 N 8 10 1029.0 - 0.0 - - 10 - - - -
25/02:00pm 16.4 N 8 11 1029.3 - 0.0 - - 10 - - - -
25/01:30pm 16.1 N 8 11 1029.5 - 0.0 - - 10 - - - -
25/01:00pm 15.5 N 8 10 1029.9 - 0.0 - - 10 - - - -
25/12:30pm 15.2 N 7 9 1030.3 - 0.0 - - 10 - - - -
25/12:00pm 14.5 N 9 11 1030.7 - 0.0 - Mostly clear 10 - - - -
25/11:30am 13.5 N 10 14 1031.1 - 0.0 - - 10 - - - -
25/11:00am 13.1 N 8 11 1031.5 - 0.0 - - 10 - - - -
25/10:30am 12.3 N 8 11 1031.6 - 0.0 - - 10 - - - -
25/10:00am 11.9 N 7 8 1031.5 - 0.0 - - 10 - - - -
25/09:30am 11.7 NNW 6 7 1031.6 - 0.0 - - 10 - - - -
25/09:00am 10.9 N 7 9 1031.6 - 0.0 - Partly cloudy 10 - - - -
25/08:30am 10.1 N 6 8 1031.5 - 0.0 - - 10 - - - -
25/08:00am 9.4 N 5 7 1031.4 - 0.0 - - 10 - - - -
25/07:30am 9.6 N 7 9 1031.2 - 0.0 - - 10 - - - -
25/07:00am 9.0 N 4 5 1031.2 - 0.0 - - 10 - - - -
25/06:30am 8.9 NNW 3 4 1031.1 - 0.0 - - 10 - - - -
25/06:00am 9.1 N 5 7 1030.6 - 0.0 - Mostly cloudy 10 - - - -
25/05:30am 9.2 N 4 5 1030.0 - 0.0 - - 10 - - - -
25/05:00am 9.2 NNE 6 7 1029.9 - 0.0 - - 10 - - - -
25/04:30am 9.1 NNE 6 7 1030.1 - 0.0 - - 10 - - - -
25/04:00am 8.2 CALM 0 3 1029.9 - 0.0 - - 10 - - - -
25/03:30am 9.0 N 5 6 1030.2 - 0.0 - - 10 - - - -
25/03:00am 9.0 N 4 5 1030.5 - 0.0 - Cloudy 10 - - - -
25/02:30am 8.5 N 4 5 1030.4 - 0.0 - - 10 - - - -

Other Formats:

Comma delimited format used in spreadsheet applications
http://www.bom.gov.au/fwo/IDV60701/IDV60701.94870.axf

JavaScript Object Notation format (JSON) in row-major order
http://www.bom.gov.au/fwo/IDV60701/IDV60701.94870.json